Time;durP1;ratioP1;P1;durP2;ratioP2;P2;SDS_P1;SDS_P2;PMS_P1;PMS_P2;Temp;Humidity;BMP_temperature;BMP_pressure;BME280_temperature;BME280_humidity;BME280_pressure;Samples;Min_cycle;Max_cycle;Signal;HPM_P1;HPM_P2
2022/09/06 00:00:58;;;;;;;1999.90;999.90;;;19.60;86.50;;;;;;5092812;28;20438;-61
2022/09/06 00:03:26;;;;;;;1999.90;999.90;;;19.60;86.80;;;;;;5093592;28;20119;-61
2022/09/06 00:05:53;;;;;;;1999.90;999.90;;;19.50;86.80;;;;;;5057993;28;20401;-61
2022/09/06 00:08:18;;;;;;;1999.90;999.90;;;19.50;87.10;;;;;;5086666;28;20049;-61
2022/09/06 00:10:44;;;;;;;1999.90;999.90;;;19.40;87.30;;;;;;5073157;28;20120;-61
2022/09/06 00:13:12;;;;;;;1999.90;999.90;;;19.40;87.40;;;;;;5072178;28;20131;-61
2022/09/06 00:15:38;;;;;;;1999.90;999.90;;;19.40;87.70;;;;;;5072724;28;20048;-61
2022/09/06 00:18:06;;;;;;;1999.90;999.90;;;19.40;88.10;;;;;;5081011;28;20055;-61
2022/09/06 00:20:33;;;;;;;1999.90;999.90;;;19.30;88.40;;;;;;5078616;28;20391;-61
2022/09/06 00:23:01;;;;;;;1999.90;999.90;;;19.30;88.60;;;;;;5071676;28;20057;-61
2022/09/06 00:25:28;;;;;;;1999.90;999.90;;;19.30;89.00;;;;;;5071802;28;20122;-61
2022/09/06 00:27:56;;;;;;;1999.90;999.90;;;19.20;89.20;;;;;;5073065;28;20056;-61
2022/09/06 00:30:23;;;;;;;1999.90;999.90;;;19.20;89.50;;;;;;5072409;28;20383;-61
2022/09/06 00:32:49;;;;;;;1999.90;999.90;;;19.20;89.70;;;;;;5071773;28;20467;-61
2022/09/06 00:35:15;;;;;;;1999.90;999.90;;;19.10;90.00;;;;;;5055775;28;20044;-61
2022/09/06 00:37:41;;;;;;;1999.90;999.90;;;19.10;90.10;;;;;;5084296;28;20056;-61
2022/09/06 00:40:07;;;;;;;1999.90;999.90;;;19.10;90.30;;;;;;5072093;28;20048;-61
2022/09/06 00:42:33;;;;;;;1999.90;999.90;;;19.00;90.40;;;;;;5055056;28;20056;-61
2022/09/06 00:44:59;;;;;;;1999.90;999.90;;;19.00;90.60;;;;;;5054068;28;20447;-61
2022/09/06 00:47:27;;;;;;;1999.90;999.90;;;19.00;90.70;;;;;;5071835;28;20056;-61
2022/09/06 00:49:55;;;;;;;1999.90;999.90;;;18.90;90.90;;;;;;5072942;28;20036;-61
2022/09/06 00:52:22;;;;;;;1999.90;999.90;;;18.90;91.10;;;;;;5074023;28;20056;-61
2022/09/06 00:54:50;;;;;;;1999.90;999.90;;;18.90;91.20;;;;;;5092149;28;20044;-61
2022/09/06 00:57:16;;;;;;;1999.90;999.90;;;18.90;91.40;;;;;;5092884;28;20080;-61
2022/09/06 00:59:44;;;;;;;1999.90;999.90;;;18.90;91.50;;;;;;5082500;28;20482;-61
2022/09/06 01:02:10;;;;;;;1999.90;999.90;;;18.80;91.60;;;;;;5072778;28;20086;-61
2022/09/06 01:04:40;;;;;;;1999.90;999.90;;;18.80;91.80;;;;;;5072074;28;20036;-61
2022/09/06 01:07:19;;;;;;;1999.90;999.90;;;18.80;91.90;;;;;;5052209;28;20199;-61
2022/09/06 01:09:59;;;;;;;1999.90;999.90;;;18.80;92.00;;;;;;5066413;28;20076;-61
2022/09/06 01:12:33;;;;;;;1999.90;999.90;;;18.80;92.00;;;;;;5057506;28;20465;-61
2022/09/06 01:15:09;;;;;;;1999.90;999.90;;;18.80;92.20;;;;;;5091485;28;20098;-61
2022/09/06 01:17:42;;;;;;;1999.90;999.90;;;18.70;92.30;;;;;;5082751;28;20375;-61
2022/09/06 01:20:28;;;;;;;1999.90;999.90;;;18.70;92.40;;;;;;5054481;28;20040;-61
2022/09/06 01:22:53;;;;;;;1999.90;999.90;;;18.70;92.50;;;;;;5070442;28;20048;-60
2022/09/06 01:25:31;;;;;;;1999.90;999.90;;;18.70;92.60;;;;;;5071714;28;20367;-61
2022/09/06 01:28:27;;;;;;;1999.90;999.90;;;18.60;92.70;;;;;;5058133;28;20048;-61
2022/09/06 01:31:02;;;;;;;1999.90;999.90;;;18.60;92.80;;;;;;5053589;28;20048;-61
2022/09/06 01:33:39;;;;;;;1999.90;999.90;;;18.60;93.00;;;;;;5091576;28;20052;-61
2022/09/06 01:36:09;;;;;;;1999.90;999.90;;;18.60;93.10;;;;;;5064465;28;20040;-61
2022/09/06 01:38:35;;;;;;;1999.90;999.90;;;18.60;93.10;;;;;;5076323;28;20044;-61
2022/09/06 01:41:01;;;;;;;1999.90;999.90;;;18.60;93.20;;;;;;5076070;28;20618;-61
2022/09/06 01:43:33;;;;;;;1999.90;999.90;;;18.50;93.60;;;;;;5074777;28;20052;-61
2022/09/06 01:46:21;;;;;;;1999.90;999.90;;;18.60;93.60;;;;;;5084910;28;20098;-61
2022/09/06 01:49:04;;;;;;;1999.90;999.90;;;18.50;93.60;;;;;;5096194;28;20478;-61
2022/09/06 01:51:48;;;;;;;1999.90;999.90;;;18.50;93.80;;;;;;5095223;28;20072;-61
2022/09/06 01:54:32;;;;;;;1999.90;999.90;;;18.50;94.00;;;;;;5095229;28;20096;-61
2022/09/06 01:57:21;;;;;;;1999.90;999.90;;;18.50;94.20;;;;;;5095283;28;20478;-61
2022/09/06 02:00:08;;;;;;;1999.90;999.90;;;18.50;94.30;;;;;;5084689;28;20490;-61
2022/09/06 02:02:47;;;;;;;1999.90;999.90;;;18.40;94.70;;;;;;5075325;28;20084;-60
2022/09/06 02:05:31;;;;;;;1999.90;999.90;;;18.40;94.70;;;;;;5074548;28;20333;-61
2022/09/06 02:08:03;;;;;;;1999.90;999.90;;;18.40;94.80;;;;;;5075631;28;20127;-61
2022/09/06 02:10:36;;;;;;;1999.90;999.90;;;18.40;95.00;;;;;;5075544;28;20109;-61
2022/09/06 02:13:05;;;;;;;1999.90;999.90;;;18.40;95.10;;;;;;5087095;28;20048;-61
2022/09/06 02:15:41;;;;;;;1999.90;999.90;;;18.40;95.20;;;;;;5095579;28;20044;-61
2022/09/06 02:18:13;;;;;;;1999.90;999.90;;;18.40;95.40;;;;;;5094972;28;20048;-61
2022/09/06 02:20:48;;;;;;;1999.90;999.90;;;18.70;98.50;;;;;;5091949;28;20131;-61
2022/09/06 02:23:16;;;;;;;1999.90;999.90;;;18.30;95.50;;;;;;5075315;28;20053;-61
2022/09/06 02:25:53;;;;;;;1999.90;999.90;;;18.30;95.70;;;;;;5074358;28;20076;-61
2022/09/06 02:28:20;;;;;;;1999.90;999.90;;;18.30;95.80;;;;;;5074751;28;20048;-61
2022/09/06 02:30:50;;;;;;;1999.90;999.90;;;18.20;95.80;;;;;;5088392;28;20047;-61
2022/09/06 02:33:19;;;;;;;1999.90;999.90;;;18.30;96.00;;;;;;5076347;28;20044;-60
2022/09/06 02:35:48;;;;;;;1999.90;999.90;;;18.30;96.10;;;;;;5094874;28;20043;-61
2022/09/06 02:38:15;;;;;;;1999.90;999.90;;;18.30;96.20;;;;;;5082914;28;20052;-61
2022/09/06 02:40:42;;;;;;;1999.90;999.90;;;18.20;96.30;;;;;;5094392;28;20071;-61
2022/09/06 02:43:08;;;;;;;1999.90;999.90;;;18.20;96.40;;;;;;5081854;28;20056;-61
2022/09/06 02:45:34;;;;;;;1999.90;999.90;;;18.20;96.60;;;;;;5074468;28;20044;-61
2022/09/06 02:48:00;;;;;;;1999.90;999.90;;;18.20;96.70;;;;;;5061213;28;20483;-61
2022/09/06 02:50:25;;;;;;;1999.90;999.90;;;18.20;96.70;;;;;;5075209;28;20044;-61
2022/09/06 02:53:11;;;;;;;1999.90;999.90;;;18.20;96.80;;;;;;5074679;28;20101;-61
2022/09/06 02:55:37;;;;;;;1999.90;999.90;;;18.20;96.90;;;;;;5074759;28;20051;-61
2022/09/06 02:58:05;;;;;;;1999.90;999.90;;;18.20;97.00;;;;;;5090332;28;20044;-61
2022/09/06 03:00:31;;;;;;;1999.90;999.90;;;18.10;97.20;;;;;;5094193;28;20055;-61
2022/09/06 03:02:58;;;;;;;1999.90;999.90;;;18.10;97.20;;;;;;5094821;28;20561;-61
2022/09/06 03:05:25;;;;;;;1999.90;999.90;;;18.10;97.40;;;;;;5088926;28;20063;-61
2022/09/06 03:07:51;;;;;;;1999.90;999.90;;;18.10;97.50;;;;;;5075599;28;20076;-61
2022/09/06 03:10:17;;;;;;;1999.90;999.90;;;18.10;97.70;;;;;;5094687;28;20085;-60
2022/09/06 03:12:44;;;;;;;1999.90;999.90;;;;;;;;;;5094174;28;20044;-61
2022/09/06 03:15:11;;;;;;;1999.90;999.90;;;;;;;;;;5078197;28;20049;-61
2022/09/06 03:17:38;;;;;;;1999.90;999.90;;;18.30;99.90;;;;;;5074344;28;20117;-61
2022/09/06 03:20:04;;;;;;;1999.90;999.90;;;18.20;99.90;;;;;;5074025;28;20090;-61
2022/09/06 03:22:30;;;;;;;1999.90;999.90;;;18.40;99.90;;;;;;5072981;28;20478;-61
2022/09/06 03:24:56;;;;;;;1999.90;999.90;;;18.30;99.90;;;;;;5089277;28;20062;-60
2022/09/06 03:27:22;;;;;;;1999.90;999.90;;;18.20;99.90;;;;;;5094106;28;20048;-61
2022/09/06 03:29:48;;;;;;;1999.90;999.90;;;18.40;99.90;;;;;;5088846;28;20044;-61
2022/09/06 03:32:14;;;;;;;1999.90;999.90;;;18.40;99.90;;;;;;5082430;28;20101;-61
2022/09/06 03:34:40;;;;;;;1999.90;999.90;;;18.40;99.90;;;;;;5093714;28;20404;-61
2022/09/06 03:37:06;;;;;;;1999.90;999.90;;;18.30;99.90;;;;;;5089426;28;20489;-60
2022/09/06 03:39:32;;;;;;;1999.90;999.90;;;17.80;98.40;;;;;;5073657;28;20055;-60
2022/09/06 03:41:57;;;;;;;1999.90;999.90;;;18.00;98.80;;;;;;5075152;28;20045;-61
2022/09/06 03:44:23;;;;;;;1999.90;999.90;;;18.00;98.90;;;;;;5073142;28;20070;-60
2022/09/06 03:46:50;;;;;;;1999.90;999.90;;;17.90;99.00;;;;;;5055547;28;20486;-60
2022/09/06 03:49:16;;;;;;;1999.90;999.90;;;17.90;99.10;;;;;;5076667;28;20082;-60
2022/09/06 03:51:42;;;;;;;1999.90;999.90;;;17.90;99.20;;;;;;5093103;28;20448;-61
2022/09/06 03:54:07;;;;;;;1999.90;999.90;;;17.90;99.30;;;;;;5075274;28;20102;-60
2022/09/06 03:56:33;;;;;;;1999.90;999.90;;;17.90;99.30;;;;;;5092756;28;20052;-60
2022/09/06 03:58:59;;;;;;;1999.90;999.90;;;17.90;99.40;;;;;;5092883;28;20418;-60
2022/09/06 04:01:25;;;;;;;1999.90;999.90;;;17.90;99.50;;;;;;5078484;28;20040;-60
2022/09/06 04:03:51;;;;;;;1999.90;999.90;;;17.90;99.60;;;;;;5071337;28;20060;-60
2022/09/06 04:06:16;;;;;;;1999.90;999.90;;;17.80;99.60;;;;;;5072431;28;20124;-60
2022/09/06 04:08:42;;;;;;;1999.90;999.90;;;17.80;99.70;;;;;;5072141;28;20102;-61
2022/09/06 04:11:08;;;;;;;1999.90;999.90;;;17.80;99.70;;;;;;5071398;28;20044;-60
2022/09/06 04:13:35;;;;;;;1999.90;999.90;;;17.80;99.70;;;;;;5072012;28;20102;-61
2022/09/06 04:16:01;;;;;;;1999.90;999.90;;;17.80;99.80;;;;;;5072425;28;20044;-61
2022/09/06 04:18:27;;;;;;;1999.90;999.90;;;17.80;99.90;;;;;;5091786;28;20054;-60
2022/09/06 04:20:55;;;;;;;1999.90;999.90;;;17.70;99.90;;;;;;5093122;28;20390;-61
2022/09/06 04:23:22;;;;;;;1999.90;999.90;;;17.70;99.90;;;;;;5081702;28;20080;-61
2022/09/06 04:25:50;;;;;;;1999.90;999.90;;;17.70;99.90;;;;;;5067859;28;20044;-61
2022/09/06 04:28:17;;;;;;;1999.90;999.90;;;17.70;99.90;;;;;;5072245;28;20045;-60
2022/09/06 04:30:50;;;;;;;1999.90;999.90;;;17.70;99.90;;;;;;5072669;28;20048;-61
2022/09/06 04:33:16;;;;;;;1999.90;999.90;;;17.70;99.90;;;;;;5072506;28;20044;-61
2022/09/06 04:35:41;;;;;;;1999.90;999.90;;;17.70;99.90;;;;;;5080507;28;20047;-61
2022/09/06 04:38:07;;;;;;;1999.90;999.90;;;17.70;99.90;;;;;;5072677;28;20059;-61
2022/09/06 04:40:33;;;;;;;1999.90;999.90;;;17.70;99.90;;;;;;5071809;28;20052;-61
2022/09/06 04:42:58;;;;;;;1999.90;999.90;;;17.70;99.90;;;;;;5072169;28;20071;-61
2022/09/06 04:45:24;;;;;;;1999.90;999.90;;;17.70;99.90;;;;;;5064189;28;20044;-61
2022/09/06 04:47:50;;;;;;;1999.90;999.90;;;17.60;99.90;;;;;;5070321;28;20043;-61
2022/09/06 04:50:16;;;;;;;1999.90;999.90;;;17.70;99.90;;;;;;5072092;28;20045;-61
2022/09/06 04:52:47;;;;;;;1999.90;999.90;;;17.60;99.90;;;;;;5070580;28;20497;-61
2022/09/06 04:55:12;;;;;;;1999.90;999.90;;;17.60;99.90;;;;;;5053590;28;20049;-61
2022/09/06 04:57:38;;;;;;;1999.90;999.90;;;17.60;99.90;;;;;;5072852;28;20060;-61
2022/09/06 05:00:05;;;;;;;1999.90;999.90;;;17.60;99.90;;;;;;5071423;28;20124;-61
2022/09/06 05:02:31;;;;;;;1999.90;999.90;;;17.60;99.90;;;;;;5069843;28;20071;-61
2022/09/06 05:04:56;;;;;;;1999.90;999.90;;;17.60;99.90;;;;;;5067824;28;20486;-61
2022/09/06 05:07:22;;;;;;;1999.90;999.90;;;17.60;99.90;;;;;;5054020;28;20051;-61
2022/09/06 05:09:48;;;;;;;1999.90;999.90;;;17.60;99.90;;;;;;5084466;28;20090;-61
2022/09/06 05:12:13;;;;;;;1999.90;999.90;;;17.60;99.90;;;;;;5096583;28;20083;-61
2022/09/06 05:14:39;;;;;;;1999.90;999.90;;;17.60;99.90;;;;;;5096100;28;20474;-61
2022/09/06 05:17:05;;;;;;;1999.90;999.90;;;17.60;99.90;;;;;;5072540;28;20406;-61
2022/09/06 05:19:31;;;;;;;1999.90;999.90;;;17.70;99.90;;;;;;5056417;28;20055;-61
2022/09/06 05:21:56;;;;;;;1999.90;999.90;;;17.70;99.90;;;;;;5055732;28;20383;-61
2022/09/06 05:24:22;;;;;;;1999.90;999.90;;;17.70;99.90;;;;;;5054935;28;20048;-61
2022/09/06 05:26:48;;;;;;;1999.90;999.90;;;17.70;99.90;;;;;;5055831;28;20045;-61
2022/09/06 05:29:14;;;;;;;1999.90;999.90;;;17.70;99.90;;;;;;5054016;28;20533;-61
2022/09/06 05:31:39;;;;;;;1999.90;999.90;;;17.70;99.90;;;;;;5055969;28;20501;-61
2022/09/06 05:34:05;;;;;;;1999.90;999.90;;;17.70;99.90;;;;;;5055687;28;20115;-61
2022/09/06 05:36:32;;;;;;;1999.90;999.90;;;17.70;99.90;;;;;;5054667;28;20045;-61
2022/09/06 05:38:58;;;;;;;1999.90;999.90;;;17.70;99.90;;;;;;5052334;28;20064;-61
2022/09/06 05:41:24;;;;;;;1999.90;999.90;;;17.70;99.90;;;;;;5055559;28;20045;-61
2022/09/06 05:43:50;;;;;;;1999.90;999.90;;;17.70;99.90;;;;;;5055024;28;20053;-61
2022/09/06 05:46:16;;;;;;;1999.90;999.90;;;17.70;99.90;;;;;;5056007;28;20045;-61
2022/09/06 05:48:42;;;;;;;1999.90;999.90;;;17.60;99.90;;;;;;5048734;28;20041;-61
2022/09/06 05:51:11;;;;;;;1999.90;999.90;;;17.70;99.90;;;;;;5055251;28;20376;-61
2022/09/06 05:53:39;;;;;;;1999.90;999.90;;;17.70;99.90;;;;;;5055113;28;20049;-61
2022/09/06 05:56:06;;;;;;;1999.90;999.90;;;17.70;99.90;;;;;;5054648;28;20045;-60
2022/09/06 05:58:32;;;;;;;1999.90;999.90;;;17.60;99.90;;;;;;5055679;28;20041;-61
2022/09/06 06:01:17;;;;;;;1999.90;999.90;;;17.60;99.90;;;;;;5056040;28;20052;-61
2022/09/06 06:03:50;;;;;;;1999.90;999.90;;;17.60;99.90;;;;;;5054375;28;20041;-61
2022/09/06 06:06:16;;;;;;;1999.90;999.90;;;17.60;99.90;;;;;;5054863;28;20069;-61
2022/09/06 06:08:42;;;;;;;1999.90;999.90;;;17.60;99.90;;;;;;5051770;28;20622;-62
2022/09/06 06:11:08;;;;;;;1999.90;999.90;;;17.60;99.90;;;;;;5053432;28;20052;-61
2022/09/06 06:13:38;;;;;;;1999.90;999.90;;;17.60;99.90;;;;;;5055311;28;20053;-61
2022/09/06 06:16:05;;;;;;;1999.90;999.90;;;17.60;99.90;;;;;;5077247;28;20430;-61
2022/09/06 06:18:31;;;;;;;1999.90;999.90;;;17.60;99.90;;;;;;5074319;28;20055;-61
2022/09/06 06:21:16;;;;;;;1999.90;999.90;;;17.60;99.90;;;;;;5059842;28;20041;-61
2022/09/06 06:23:44;;;;;;;1999.90;999.90;;;17.60;99.90;;;;;;5074906;28;20048;-61
2022/09/06 06:26:11;;;;;;;1999.90;999.90;;;17.60;99.90;;;;;;5074445;28;20505;-61
2022/09/06 06:28:38;;;;;;;1999.90;999.90;;;17.60;99.90;;;;;;5031374;28;20091;-61
2022/09/06 06:31:05;;;;;;;1999.90;999.90;;;17.60;99.90;;;;;;5034575;28;20041;-61
2022/09/06 06:33:31;;;;;;;1999.90;999.90;;;17.70;99.90;;;;;;5053790;28;20103;-61
2022/09/06 06:36:06;;;;;;;1999.90;999.90;;;17.60;99.90;;;;;;5053512;28;20443;-61
2022/09/06 06:38:36;;;;;;;1999.90;999.90;;;17.50;99.90;;;;;;5052059;28;20427;-61
2022/09/06 06:41:04;;;;;;;1999.90;999.90;;;17.30;99.90;;;;;;5054484;28;20044;-61
2022/09/06 06:43:35;;;;;;;1999.90;999.90;;;17.20;99.90;;;;;;5054654;28;20080;-61
2022/09/06 06:46:02;;;;;;;1999.90;999.90;;;17.20;99.90;;;;;;5050628;28;20537;-61
2022/09/06 06:48:28;;;;;;;1999.90;999.90;;;17.20;99.90;;;;;;5054792;28;20538;-61
2022/09/06 06:50:54;;;;;;;1999.90;999.90;;;17.20;99.90;;;;;;5053862;28;20060;-61
2022/09/06 06:53:19;;;;;;;1999.90;999.90;;;17.30;99.90;;;;;;5052509;28;20049;-61
2022/09/06 06:55:47;;;;;;;1999.90;999.90;;;17.30;99.90;;;;;;5053002;28;20052;-61
2022/09/06 06:58:14;;;;;;;1999.90;999.90;;;17.30;99.90;;;;;;5053950;28;20056;-61
2022/09/06 07:00:40;;;;;;;1999.90;999.90;;;17.40;99.90;;;;;;5052942;28;20581;-61
2022/09/06 07:03:07;;;;;;;1999.90;999.90;;;17.40;99.90;;;;;;5053456;28;20112;-61
2022/09/06 07:05:33;;;;;;;1999.90;999.90;;;17.40;99.90;;;;;;5054133;28;20483;-61
2022/09/06 07:07:59;;;;;;;1999.90;999.90;;;17.50;99.90;;;;;;5053541;28;20048;-61
2022/09/06 07:10:25;;;;;;;1999.90;999.90;;;17.60;99.90;;;;;;5053922;28;20048;-61
2022/09/06 07:12:51;;;;;;;1999.90;999.90;;;17.60;99.90;;;;;;5053943;28;20041;-61
2022/09/06 07:15:17;;;;;;;1999.90;999.90;;;17.70;99.90;;;;;;5053650;28;20115;-61
2022/09/06 07:17:43;;;;;;;1999.90;999.90;;;17.70;99.90;;;;;;5092981;28;20102;-61
2022/09/06 07:20:10;;;;;;;1999.90;999.90;;;17.70;99.90;;;;;;5094461;28;20043;-61
2022/09/06 07:22:36;;;;;;;1999.90;999.90;;;17.80;99.90;;;;;;5093087;28;20040;-61
2022/09/06 07:25:03;;;;;;;1999.90;999.90;;;17.80;99.90;;;;;;5094171;28;20047;-61
2022/09/06 07:27:29;;;;;;;1999.90;999.90;;;17.90;99.90;;;;;;5093439;28;20123;-61
2022/09/06 07:29:55;;;;;;;1999.90;999.90;;;17.90;99.90;;;;;;5094461;28;20206;-61
2022/09/06 07:32:21;;;;;;;1999.90;999.90;;;17.90;99.90;;;;;;5071969;28;20044;-61
2022/09/06 07:34:46;;;;;;;1999.90;999.90;;;18.00;99.90;;;;;;5071964;28;20048;-61
2022/09/06 07:37:12;;;;;;;1999.90;999.90;;;18.00;99.90;;;;;;5060608;28;20032;-61
2022/09/06 07:39:38;;;;;;;1999.90;999.90;;;18.10;99.90;;;;;;5079746;28;20098;-61
2022/09/06 07:42:05;;;;;;;1999.90;999.90;;;18.10;99.90;;;;;;5081954;28;20119;-61
2022/09/06 07:44:31;;;;;;;1999.90;999.90;;;18.10;99.90;;;;;;5073333;28;20509;-61
2022/09/06 07:46:56;;;;;;;1999.90;999.90;;;18.20;99.90;;;;;;5072621;28;20057;-61
2022/09/06 07:49:22;;;;;;;1999.90;999.90;;;18.30;99.90;;;;;;5071822;28;20048;-61
2022/09/06 07:51:48;;;;;;;1999.90;999.90;;;18.40;99.90;;;;;;5073584;28;20040;-61
2022/09/06 07:54:14;;;;;;;1999.90;999.90;;;18.60;99.90;;;;;;5060526;28;20402;-61
2022/09/06 07:56:40;;;;;;;1999.90;999.90;;;18.60;99.90;;;;;;5060074;28;20037;-60
2022/09/06 07:59:06;;;;;;;1999.90;999.90;;;18.80;99.90;;;;;;5061761;28;20048;-60
2022/09/06 08:01:37;;;;;;;1999.90;999.90;;;19.00;99.90;;;;;;5064281;28;20037;-61
2022/09/06 08:04:05;;;;;;;1999.90;999.90;;;19.30;99.90;;;;;;5067651;28;20048;-61
2022/09/06 08:06:34;;;;;;;1999.90;999.90;;;19.50;99.90;;;;;;5061229;28;20395;-61
2022/09/06 08:09:01;;;;;;;1999.90;999.90;;;19.70;99.90;;;;;;5049390;28;20127;-61
2022/09/06 08:11:30;;;;;;;1999.90;999.90;;;20.10;99.90;;;;;;5072192;28;20047;-61
2022/09/06 08:13:57;;;;;;;1999.90;999.90;;;20.60;99.90;;;;;;5072231;28;20048;-61
2022/09/06 08:16:24;;;;;;;1999.90;999.90;;;21.10;99.90;;;;;;5081916;28;20052;-61
2022/09/06 08:18:52;;;;;;;1999.90;999.90;;;21.40;99.90;;;;;;5072441;28;20109;-61
2022/09/06 08:21:18;;;;;;;1999.90;999.90;;;21.70;99.90;;;;;;5073082;28;20123;-61
2022/09/06 08:23:47;;;;;;;1999.90;999.90;;;22.00;99.90;;;;;;5065379;28;20211;-61
2022/09/06 08:26:13;;;;;;;1999.90;999.90;;;22.20;99.90;;;;;;5053165;28;20049;-61
2022/09/06 08:28:39;;;;;;;1999.90;999.90;;;22.20;99.90;;;;;;5048910;28;20083;-61
2022/09/06 08:31:08;;;;;;;1999.90;999.90;;;22.30;99.90;;;;;;5051789;28;20138;-61
2022/09/06 08:33:35;;;;;;;1999.90;999.90;;;22.30;99.90;;;;;;5063005;28;20202;-61
2022/09/06 08:36:01;;;;;;;1999.90;999.90;;;22.40;99.90;;;;;;5052673;28;20048;-61
2022/09/06 08:38:27;;;;;;;1999.90;999.90;;;22.60;99.90;;;;;;5051592;28;20464;-61
2022/09/06 08:41:03;;;;;;;1999.90;999.90;;;22.80;99.90;;;;;;5054025;28;20115;-61
2022/09/06 08:43:29;;;;;;;1999.90;999.90;;;22.90;99.90;;;;;;5072712;28;20088;-61
2022/09/06 08:45:56;;;;;;;1999.90;999.90;;;22.90;99.90;;;;;;5071333;28;20122;-61
2022/09/06 08:48:26;;;;;;;1999.90;999.90;;;23.00;99.90;;;;;;5054951;28;20044;-60
2022/09/06 08:51:06;;;;;;;1999.90;999.90;;;23.00;99.90;;;;;;5072279;28;20120;-59
2022/09/06 08:53:37;;;;;;;1999.90;999.90;;;23.10;99.90;;;;;;5071285;28;20053;-59
2022/09/06 08:56:31;;;;;;;1999.90;999.90;;;23.20;99.90;;;;;;5054661;28;20548;-59
2022/09/06 08:59:05;;;;;;;1999.90;999.90;;;23.50;99.90;;;;;;5066838;28;20038;-59
2022/09/06 09:01:40;;;;;;;1999.90;999.90;;;23.60;99.90;;;;;;5052633;28;20045;-59
2022/09/06 09:04:13;;;;;;;1999.90;999.90;;;23.60;99.40;;;;;;5052559;28;20037;-59
2022/09/06 09:06:39;;;;;;;1999.90;999.90;;;23.50;98.90;;;;;;5051592;28;20045;-59
2022/09/06 09:09:07;;;;;;;1999.90;999.90;;;23.30;99.00;;;;;;5067494;28;20502;-60
2022/09/06 09:11:35;;;;;;;1999.90;999.90;;;23.00;99.00;;;;;;5072622;28;20597;-59
2022/09/06 09:14:16;;;;;;;1999.90;999.90;;;22.80;98.90;;;;;;5071456;28;20059;-59
2022/09/06 09:16:41;;;;;;;1999.90;999.90;;;22.60;99.00;;;;;;5082762;28;20059;-59
2022/09/06 09:19:08;;;;;;;1999.90;999.90;;;22.50;99.10;;;;;;5092530;28;20048;-59
2022/09/06 09:21:37;;;;;;;1999.90;999.90;;;22.60;99.20;;;;;;5091490;28;20114;-60
2022/09/06 09:24:06;;;;;;;1999.90;999.90;;;22.70;99.20;;;;;;5092693;28;20048;-59
2022/09/06 09:26:48;;;;;;;1999.90;999.90;;;22.90;98.90;;;;;;5082264;28;20041;-59
2022/09/06 09:29:14;;;;;;;1999.90;999.90;;;23.10;98.70;;;;;;5071282;28;20049;-59
2022/09/06 09:31:46;;;;;;;1999.90;999.90;;;23.20;98.30;;;;;;5087680;28;20052;-59
2022/09/06 09:34:26;;;;;;;1999.90;999.90;;;23.30;98.20;;;;;;5037245;28;20048;-59
2022/09/06 09:37:19;;;;;;;1999.90;999.90;;;23.50;97.60;;;;;;5090347;28;20559;-60
2022/09/06 09:39:46;;;;;;;1999.90;999.90;;;23.60;97.30;;;;;;5066019;28;20048;-59
2022/09/06 09:42:23;;;;;;;1999.90;999.90;;;23.80;97.00;;;;;;5071038;28;20037;-59
2022/09/06 09:44:49;;;;;;;1999.90;999.90;;;24.00;96.60;;;;;;5059668;28;20442;-60
2022/09/06 09:47:27;;;;;;;1999.90;999.90;;;24.20;96.00;;;;;;5064396;28;20037;-59
2022/09/06 09:49:54;;;;;;;1999.90;999.90;;;24.40;95.70;;;;;;5069297;28;20045;-60
2022/09/06 09:52:28;;;;;;;1999.90;999.90;;;24.60;95.20;;;;;;5078085;28;20032;-59
2022/09/06 09:55:01;;;;;;;1999.90;999.90;;;24.80;94.80;;;;;;5092520;28;20434;-59
2022/09/06 09:57:30;;;;;;;1999.90;999.90;;;25.00;94.10;;;;;;5095533;28;20040;-60
2022/09/06 10:00:00;;;;;;;1999.90;999.90;;;25.20;93.30;;;;;;5095792;28;20193;-59
2022/09/06 10:02:34;;;;;;;1999.90;999.90;;;25.40;92.90;;;;;;5078939;28;20045;-59
2022/09/06 10:05:05;;;;;;;1999.90;999.90;;;25.60;92.50;;;;;;5075575;28;20124;-60
2022/09/06 10:07:32;;;;;;;1999.90;999.90;;;25.80;92.30;;;;;;5067194;28;20079;-60
2022/09/06 10:10:03;;;;;;;1999.90;999.90;;;26.10;91.60;;;;;;5074546;28;20098;-60
2022/09/06 10:12:32;;;;;;;1999.90;999.90;;;26.20;90.70;;;;;;5075452;28;20071;-60
2022/09/06 10:14:58;;;;;;;1999.90;999.90;;;26.60;90.00;;;;;;5074769;28;20049;-60
2022/09/06 10:17:26;;;;;;;1999.90;999.90;;;;;;;;;;5074422;28;20506;-60
2022/09/06 10:19:52;;;;;;;1999.90;999.90;;;27.60;86.70;;;;;;5089858;28;20059;-60
2022/09/06 10:22:29;;;;;;;1999.90;999.90;;;28.10;84.60;;;;;;5095065;28;20044;-60
2022/09/06 10:25:31;;;;;;;1999.90;999.90;;;28.70;82.20;;;;;;5094902;28;20087;-60
2022/09/06 10:28:13;;;;;;;1999.90;999.90;;;29.30;81.80;;;;;;5064079;28;20131;-59
2022/09/06 10:30:52;;;;;;;1999.90;999.90;;;30.00;78.20;;;;;;5073008;28;20059;-60
2022/09/06 10:33:55;;;;;;;1999.90;999.90;;;30.60;75.90;;;;;;5074793;28;20049;-60
2022/09/06 10:36:21;;;;;;;;;;;;;;;;;;5076949;28;20108;-60
2022/09/06 10:39:15;;;;;;;1999.90;999.90;;;31.30;71.80;;;;;;5070807;28;20266;-60
2022/09/06 10:42:04;;;;;;;1999.90;999.90;;;31.60;71.80;;;;;;5057932;28;20040;-60
2022/09/06 10:44:38;;;;;;;1999.90;999.90;;;;;;;;;;5069884;28;20119;-59
2022/09/06 10:47:10;;;;;;;1999.90;999.90;;;32.50;87.50;;;;;;5069931;28;20477;-60
2022/09/06 10:49:39;;;;;;;1999.90;999.90;;;32.40;66.40;;;;;;5066685;28;20394;-60
2022/09/06 10:52:09;;;;;;;1999.90;999.90;;;32.60;65.70;;;;;;5073187;28;20051;-60
2022/09/06 10:54:41;;;;;;;1999.90;999.90;;;33.10;82.90;;;;;;5083418;28;20036;-60
2022/09/06 10:57:18;;;;;;;1999.90;999.90;;;33.40;83.50;;;;;;5095053;28;20130;-60
2022/09/06 10:59:56;;;;;;;1999.90;999.90;;;35.10;88.20;;;;;;5093924;28;20048;-59
2022/09/06 11:02:26;;;;;;;1999.90;999.90;;;;;;;;;;5077176;28;20462;-60
2022/09/06 11:04:52;;;;;;;1999.90;999.90;;;34.30;61.80;;;;;;5089110;28;20036;-60
2022/09/06 11:07:33;;;;;;;1999.90;999.90;;;34.40;60.30;;;;;;5072880;28;20057;-60
2022/09/06 11:10:09;;;;;;;1999.90;999.90;;;34.60;59.60;;;;;;5074067;28;20101;-60
2022/09/06 11:12:47;;;;;;;1999.90;999.90;;;34.70;59.20;;;;;;5051968;28;20162;-60
2022/09/06 11:15:15;;;;;;;1999.90;999.90;;;35.10;59.20;;;;;;5065093;28;20076;-60
2022/09/06 11:17:49;;;;;;;1999.90;999.90;;;35.30;57.80;;;;;;5071395;28;20406;-60
2022/09/06 11:20:31;;;;;;;1999.90;999.90;;;35.40;56.90;;;;;;5074581;28;20048;-60
2022/09/06 11:23:22;;;;;;;1999.90;999.90;;;35.70;56.30;;;;;;5094526;28;20121;-62
2022/09/06 11:25:54;;;;;;;1999.90;999.90;;;35.90;55.50;;;;;;5077570;28;20483;-60
2022/09/06 11:28:32;;;;;;;1999.90;999.90;;;35.90;55.00;;;;;;5073071;28;20139;-60
2022/09/06 11:30:58;;;;;;;1999.90;999.90;;;35.90;54.90;;;;;;5056562;28;20049;-60
2022/09/06 11:33:29;;;;;;;1999.90;999.90;;;36.10;54.40;;;;;;5055805;28;20132;-60
2022/09/06 11:36:17;;;;;;;1999.90;999.90;;;36.30;56.90;;;;;;5073139;28;20052;-60
2022/09/06 11:38:54;;;;;;;1999.90;999.90;;;;;;;;;;5073487;28;20098;-60
2022/09/06 11:41:20;;;;;;;1999.90;999.90;;;36.80;52.70;;;;;;5071594;28;20091;-60
2022/09/06 11:43:49;;;;;;;1999.90;999.90;;;36.90;52.60;;;;;;5073332;28;20051;-60
2022/09/06 11:46:41;;;;;;;1999.90;999.90;;;37.20;52.20;;;;;;5073874;28;20416;-60
2022/09/06 11:49:13;;;;;;;1999.90;999.90;;;37.40;51.50;;;;;;5052850;28;20049;-60
2022/09/06 11:51:42;;;;;;;1999.90;999.90;;;37.60;50.50;;;;;;5053562;28;20603;-60
2022/09/06 11:54:13;;;;;;;1999.90;999.90;;;37.70;50.30;;;;;;5065840;28;20585;-60
2022/09/06 11:56:45;;;;;;;1999.90;999.90;;;37.90;50.40;;;;;;5072473;28;20132;-60
2022/09/06 11:59:16;;;;;;;1999.90;999.90;;;38.00;49.70;;;;;;5073572;28;20110;-60
2022/09/06 12:02:00;;;;;;;1999.90;999.90;;;37.90;49.70;;;;;;5072673;28;20044;-60
2022/09/06 12:05:06;;;;;;;1999.90;999.90;;;38.10;49.90;;;;;;5072917;28;20106;-60
2022/09/06 12:07:35;;;;;;;1999.90;999.90;;;38.40;49.20;;;;;;5073045;28;20052;-60
2022/09/06 12:10:21;;;;;;;1999.90;999.90;;;38.50;48.10;;;;;;5072603;28;20055;-60
2022/09/06 12:12:51;;;;;;;1999.90;999.90;;;38.60;48.70;;;;;;5072382;28;20171;-60
2022/09/06 12:15:25;;;;;;;1999.90;999.90;;;38.70;48.30;;;;;;5073000;28;20040;-60